This is the latest recevied weather packets stored in our database for station/object M0OAB-1. If no packets are shown the sender has not sent any weather packets the latest 10 day(s).
| Time | Temp. | Humidity | Pressure | Rain* | Wind** | Luminosity | Snow |
|---|---|---|---|---|---|---|---|
| 1777744684 | 18.33° C | 61% | 998.5 hPa | 0 mm | - | - | - |
| 1777743724 | 19.44° C | 60% | 998.4 hPa | 0 mm | - | - | - |
| 1777743604 | 19.44° C | 60% | 998.5 hPa | 0 mm | - | - | - |
| 1777742765 | 19.44° C | 58% | 998.4 hPa | 0 mm | - | - | - |
| 1777741924 | 20° C | 56% | 998.4 hPa | 0 mm | - | - | - |
| 1777741805 | 20° C | 55% | 998.4 hPa | 0 mm | - | - | - |
| 1777740484 | 21.11° C | 52% | 998.6 hPa | 0 mm | - | - | - |
| 1777739885 | 21.11° C | 52% | 998.5 hPa | 0 mm | - | - | - |
| 1777739404 | 21.11° C | 51% | 998.6 hPa | 0 mm | - | - | - |
| 1777739285 | 21.11° C | 51% | 998.7 hPa | 0 mm | - | - | - |
| 1777739044 | 21.11° C | 51% | 998.7 hPa | 0 mm | - | - | - |
| 1777738925 | 21.67° C | 51% | 998.7 hPa | 0 mm | - | - | - |
| 1777735925 | 22.78° C | 43% | 999.4 hPa | 0 mm | - | - | - |
| 1777735205 | 22.78° C | 42% | 999.7 hPa | 0 mm | - | - | - |
| 1777735084 | 22.78° C | 42% | 999.6 hPa | 0 mm | - | - | - |
| 1777734604 | 22.22° C | 45% | 999.8 hPa | 0 mm | - | - | - |
| 1777733045 | 22.78° C | 42% | 1000.2 hPa | 0 mm | - | - | - |
| 1777732804 | 22.78° C | 42% | 1000.2 hPa | 0 mm | - | - | - |
| 1777731604 | 22.78° C | 42% | 1000.7 hPa | 0 mm | - | - | - |
| 1777731244 | 22.78° C | 41% | 1000.6 hPa | 0 mm | - | - | - |
| 1777730884 | 22.78° C | 42% | 1000.8 hPa | 0 mm | - | - | - |
| 1777730644 | 22.78° C | 41% | 1000.8 hPa | 0 mm | - | - | - |
| 1777729804 | 23.33° C | 41% | 1001.2 hPa | 0 mm | - | - | - |
| 1777729444 | 22.78° C | 42% | 1001.2 hPa | 0 mm | - | - | - |
| 1777729084 | 22.78° C | 41% | 1001.4 hPa | 0 mm | - | - | - |
* Rain latest hour (hover to see other rain measurements)
** Current wind speed in m/s (hover to see current wind gust speed)